Time;durP1;ratioP1;P1;durP2;ratioP2;P2;SDS_P1;SDS_P2;PMS_P1;PMS_P2;Temp;Humidity;BMP_temperature;BMP_pressure;BME280_temperature;BME280_humidity;BME280_pressure;Samples;Min_cycle;Max_cycle;Signal;HPM_P1;HPM_P2
2022/05/07 00:00:59;;;;;;;;;;;;;;;;;;2106364;28;20774;-47
2022/05/07 00:02:00;;;;;;;4.00;2.30;;;;;;;;;;2106060;28;19927;-48
2022/05/07 00:03:01;;;;;;;4.07;1.90;;;;;;;;;;2105931;28;20081;-47
2022/05/07 00:04:02;;;;;;;5.30;2.58;;;;;;;;;;2105804;28;20052;-47
2022/05/07 00:05:04;;;;;;;3.58;2.00;;;;;;;;;;2105994;28;20059;-47
2022/05/07 00:06:05;;;;;;;4.35;2.08;;;;;;;;;;2105955;28;20086;-47
2022/05/07 00:07:07;;;;;;;3.90;2.20;;;;;;;;;;2106039;28;20477;-47
2022/05/07 00:08:08;;;;;;;4.78;2.28;;;;;;;;;;2106014;28;20533;-48
2022/05/07 00:09:09;;;;;;;4.50;2.23;;;;;;;;;;2105935;28;20078;-48
2022/05/07 00:10:10;;;;;;;4.00;2.35;;;;;;;;;;2105861;28;20461;-46
2022/05/07 00:11:15;;;;;;;4.00;2.08;;;;;;;;;;2105996;28;20051;-47
2022/05/07 00:12:16;;;;;;;3.85;2.08;;;;;;;;;;2105726;28;20546;-50
2022/05/07 00:13:17;;;;;;;6.78;2.05;;;;;;;;;;2105946;28;20082;-48
2022/05/07 00:14:18;;;;;;;5.03;2.17;;;;;;;;;;2105815;28;20444;-47
2022/05/07 00:15:19;;;;;;;4.93;2.45;;;;;;;;;;2105872;28;20367;-47
2022/05/07 00:18:59;;;;;;;5.55;2.90;;;;;;;;;;2100148;28;20044;-48
2022/05/07 00:20:01;;;;;;;3.42;2.33;;;;;;;;;;2097404;28;20474;-47
2022/05/07 00:21:03;;;;;;;5.18;2.97;;;;;;;;;;2097407;28;20071;-47
2022/05/07 00:22:04;;;;;;;6.35;2.15;;;;;;;;;;2097410;28;20379;-47
2022/05/07 00:23:06;;;;;;;4.30;2.20;;;;;;;;;;2097301;28;20054;-48
2022/05/07 00:24:06;;;;;;;;;;;;;;;;;;2097980;28;20123;-48
2022/05/07 00:25:08;;;;;;;3.83;2.40;;;;;;;;;;2097344;28;19927;-49
2022/05/07 00:26:09;;;;;;;4.70;2.65;;;;;;;;;;2097343;28;20120;-48
2022/05/07 00:27:12;;;;;;;5.17;2.33;;;;;;;;;;2097483;28;20052;-48
2022/05/07 00:28:14;;;;;;;5.07;2.60;;;;;;;;;;2097341;28;20135;-48
2022/05/07 00:29:15;;;;;;;5.00;2.50;;;;;;;;;;2097356;28;20127;-48
2022/05/07 00:30:16;;;;;;;5.37;2.93;;;;;;;;;;2097368;28;20052;-47
2022/05/07 00:31:17;;;;;;;4.88;2.42;;;;;;;;;;2097380;28;20139;-49
2022/05/07 00:32:18;;;;;;;5.63;2.63;;;;;;;;;;2097472;28;20062;-47
2022/05/07 00:33:19;;;;;;;6.03;2.28;;;;;;;;;;2097319;28;20788;-47
2022/05/07 00:34:21;;;;;;;4.13;2.03;;;;;;;;;;2097283;28;20135;-47
2022/05/07 00:35:22;;;;;;;4.93;2.30;;;;;;;;;;2097426;28;20135;-53
2022/05/07 00:36:23;;;;;;;7.10;2.67;;;;;;;;;;2097303;28;20052;-48
2022/05/07 00:37:24;;;;;;;7.40;2.25;;;;;;;;;;2097922;28;20044;-48
2022/05/07 00:38:26;;;;;;;6.00;3.13;;;;;;;;;;2105728;28;20394;-48
2022/05/07 00:39:27;;;;;;;;;;;;;;;;;;2106028;28;20183;-47
2022/05/07 00:40:28;;;;;;;5.60;2.90;;;;;;;;;;2105696;28;19955;-48
2022/05/07 00:41:29;;;;;;;4.88;2.45;;;;;;;;;;2105780;28;20123;-47
2022/05/07 00:42:30;;;;;;;4.82;2.22;;;;;;;;;;2105697;28;20401;-49
2022/05/07 00:43:35;;;;;;;5.25;2.63;;;;;;;;;;2105464;28;20059;-48
2022/05/07 00:44:36;;;;;;;7.82;2.88;;;;;;;;;;2105699;28;20048;-47
2022/05/07 00:45:37;;;;;;;5.40;2.55;;;;;;;;;;2105721;28;20055;-47
2022/05/07 00:46:38;;;;;;;6.07;3.20;;;;;;;;;;2105747;28;20044;-47
2022/05/07 00:47:39;;;;;;;3.60;2.40;;;;;;;;;;2105634;28;20411;-47
2022/05/07 00:48:40;;;;;;;6.00;2.72;;;;;;;;;;2105551;28;20125;-47
2022/05/07 00:49:42;;;;;;;7.70;2.92;;;;;;;;;;2105631;28;20122;-49
2022/05/07 00:52:04;;;;;;;6.15;2.92;;;;;;;;;;2105987;28;20130;-50
2022/05/07 00:53:05;;;;;;;5.60;2.80;;;;;;;;;;2105605;28;20119;-50
2022/05/07 00:54:08;;;;;;;4.73;2.57;;;;;;;;;;2105713;28;20044;-47
2022/05/07 00:55:10;;;;;;;5.20;2.85;;;;;;;;;;2105609;28;20043;-51
2022/05/07 00:56:11;;;;;;;5.10;2.47;;;;;;;;;;2105550;28;20048;-50
2022/05/07 00:57:13;;;;;;;5.15;2.28;;;;;;;;;;2105555;28;20048;-48
2022/05/07 00:58:14;;;;;;;4.05;2.30;;;;;;;;;;2105540;28;20196;-47
2022/05/07 00:59:16;;;;;;;4.57;2.60;;;;;;;;;;2105523;28;20047;-47
2022/05/07 01:00:17;;;;;;;4.10;2.50;;;;;;;;;;2105594;28;20518;-48
2022/05/07 01:01:19;;;;;;;4.93;2.53;;;;;;;;;;2105530;28;20475;-48
2022/05/07 01:02:21;;;;;;;5.75;2.83;;;;;;;;;;2105681;28;20096;-47
2022/05/07 01:03:22;;;;;;;5.50;2.80;;;;;;;;;;2105539;28;20509;-47
2022/05/07 01:04:24;;;;;;;4.30;2.70;;;;;;;;;;2105312;28;20073;-48
2022/05/07 01:05:25;;;;;;;9.98;2.70;;;;;;;;;;2105642;28;20056;-47
2022/05/07 01:06:26;;;;;;;5.17;2.70;;;;;;;;;;2105521;28;20486;-48
2022/05/07 01:07:27;;;;;;;6.78;2.60;;;;;;;;;;2105637;28;20131;-49
2022/05/07 01:08:29;;;;;;;8.00;3.38;;;;;;;;;;2105517;28;20127;-49
2022/05/07 01:09:30;;;;;;;;;;;;;;;;;;2105894;28;20624;-49
2022/05/07 01:10:32;;;;;;;4.70;2.72;;;;;;;;;;2105492;28;20427;-47
2022/05/07 01:11:34;;;;;;;4.72;2.45;;;;;;;;;;2105639;28;20139;-48
2022/05/07 01:12:35;;;;;;;6.50;2.30;;;;;;;;;;2105738;28;20126;-48
2022/05/07 01:13:37;;;;;;;4.35;2.30;;;;;;;;;;2105465;28;20051;-47
2022/05/07 01:14:38;;;;;;;4.65;2.67;;;;;;;;;;2105581;28;20076;-49
2022/05/07 01:15:42;;;;;;;4.18;2.70;;;;;;;;;;2105527;28;20048;-47
2022/05/07 01:16:43;;;;;;;5.82;2.78;;;;;;;;;;2105452;28;20040;-47
2022/05/07 01:17:44;;;;;;;6.50;3.33;;;;;;;;;;2105556;28;20048;-48
2022/05/07 01:18:46;;;;;;;5.60;3.30;;;;;;;;;;2101742;28;20402;-47
2022/05/07 01:19:47;;;;;;;8.65;4.03;;;;;;;;;;2096959;28;20774;-48
2022/05/07 01:20:48;;;;;;;8.27;4.20;;;;;;;;;;2097190;28;20102;-47
2022/05/07 01:21:50;;;;;;;10.07;4.50;;;;;;;;;;2097096;28;20497;-47
2022/05/07 01:22:51;;;;;;;11.45;4.47;;;;;;;;;;2097085;28;20049;-48
2022/05/07 01:23:52;;;;;;;11.88;5.40;;;;;;;;;;2096876;28;20048;-47
2022/05/07 01:24:53;;;;;;;12.43;5.80;;;;;;;;;;2097181;28;20071;-48
2022/05/07 01:25:56;;;;;;;14.00;5.75;;;;;;;;;;2097089;28;20545;-47
2022/05/07 01:26:58;;;;;;;9.82;5.75;;;;;;;;;;2097077;28;20124;-47
2022/05/07 01:27:59;;;;;;;12.82;5.47;;;;;;;;;;2097076;28;20628;-47
2022/05/07 01:29:00;;;;;;;10.97;5.53;;;;;;;;;;2097008;28;20056;-50
2022/05/07 01:30:01;;;;;;;11.07;5.05;;;;;;;;;;2097132;28;20151;-48
2022/05/07 01:31:03;;;;;;;7.60;4.32;;;;;;;;;;2097209;28;20049;-47
2022/05/07 01:32:05;;;;;;;11.15;5.03;;;;;;;;;;2097196;28;20055;-48
2022/05/07 01:33:06;;;;;;;12.70;4.90;;;;;;;;;;2097044;28;20055;-47
2022/05/07 01:34:07;;;;;;;14.05;4.82;;;;;;;;;;2101582;28;20130;-47
2022/05/07 01:35:08;;;;;;;10.10;5.05;;;;;;;;;;2105373;28;20051;-47
2022/05/07 01:36:11;;;;;;;12.60;5.28;;;;;;;;;;2105450;28;20548;-47
2022/05/07 01:37:13;;;;;;;11.15;4.97;;;;;;;;;;2105451;28;20058;-49
2022/05/07 01:38:14;;;;;;;13.10;5.15;;;;;;;;;;2105523;28;20560;-50
2022/05/07 01:39:15;;;;;;;11.90;5.57;;;;;;;;;;2106781;28;20096;-47
2022/05/07 01:40:16;;;;;;;13.73;5.55;;;;;;;;;;2106909;28;20097;-47
2022/05/07 01:41:18;;;;;;;13.37;6.57;;;;;;;;;;2106941;28;20059;-47
2022/05/07 01:42:19;;;;;;;13.02;6.28;;;;;;;;;;2106790;28;20130;-48
2022/05/07 01:43:20;;;;;;;13.93;6.90;;;;;;;;;;2106847;28;20044;-46
2022/05/07 01:44:21;;;;;;;21.77;6.93;;;;;;;;;;2106702;28;20130;-49
2022/05/07 01:45:22;;;;;;;13.23;6.30;;;;;;;;;;2106893;28;20433;-49
2022/05/07 01:49:01;;;;;;;10.00;5.15;;;;;;;;;;2106657;28;20375;-49
2022/05/07 01:50:03;;;;;;;8.80;5.00;;;;;;;;;;2107085;28;20055;-58
2022/05/07 01:51:04;;;;;;;9.90;4.80;;;;;;;;;;2106837;28;20059;-58
2022/05/07 01:52:06;;;;;;;11.50;4.30;;;;;;;;;;2106730;28;20556;-58
2022/05/07 01:53:07;;;;;;;;;;;;;;;;;;2107127;28;20138;-58
2022/05/07 01:54:09;;;;;;;9.07;3.88;;;;;;;;;;2106840;28;19920;-58
2022/05/07 01:55:10;;;;;;;10.07;4.15;;;;;;;;;;2106797;28;20485;-58
2022/05/07 01:56:11;;;;;;;7.07;4.03;;;;;;;;;;2106670;28;20036;-58
2022/05/07 01:57:12;;;;;;;5.78;3.33;;;;;;;;;;2106687;28;20374;-58
2022/05/07 01:58:13;;;;;;;8.43;3.13;;;;;;;;;;2106769;28;20121;-58
2022/05/07 01:59:14;;;;;;;6.32;2.90;;;;;;;;;;2106810;28;20058;-58
2022/05/07 02:00:15;;;;;;;7.60;3.53;;;;;;;;;;2106941;28;20048;-58
2022/05/07 02:01:16;;;;;;;5.40;2.80;;;;;;;;;;2106807;28;20174;-58
2022/05/07 02:02:18;;;;;;;9.45;3.33;;;;;;;;;;2106772;28;20044;-58
2022/05/07 02:03:19;;;;;;;6.28;3.33;;;;;;;;;;2106812;28;20062;-58
2022/05/07 02:04:21;;;;;;;5.57;2.65;;;;;;;;;;2106600;28;20075;-58
2022/05/07 02:05:22;;;;;;;5.35;2.72;;;;;;;;;;2106804;28;20473;-58
2022/05/07 02:06:23;;;;;;;9.10;3.33;;;;;;;;;;2106834;28;20128;-58
2022/05/07 02:07:24;;;;;;;6.25;2.97;;;;;;;;;;2106653;28;20465;-58
2022/05/07 02:08:25;;;;;;;8.17;3.43;;;;;;;;;;2106658;28;20050;-58
2022/05/07 02:09:27;;;;;;;6.68;3.03;;;;;;;;;;2106521;28;20284;-58
2022/05/07 02:10:28;;;;;;;5.53;2.95;;;;;;;;;;2106570;28;20054;-58
2022/05/07 02:11:29;;;;;;;5.03;3.05;;;;;;;;;;2106760;28;20130;-58
2022/05/07 02:12:30;;;;;;;7.55;3.38;;;;;;;;;;2106741;28;20051;-58
2022/05/07 02:13:31;;;;;;;8.32;3.00;;;;;;;;;;2106616;28;20131;-58
2022/05/07 02:14:32;;;;;;;5.85;2.88;;;;;;;;;;2106810;28;20077;-48
2022/05/07 02:15:35;;;;;;;6.40;2.90;;;;;;;;;;2104857;28;20060;-47
2022/05/07 02:16:36;;;;;;;3.83;2.40;;;;;;;;;;2098230;28;20041;-47
2022/05/07 02:17:37;;;;;;;5.10;3.03;;;;;;;;;;2098244;28;20052;-46
2022/05/07 02:18:38;;;;;;;5.57;2.80;;;;;;;;;;2095391;28;20102;-48
2022/05/07 02:19:39;;;;;;;6.13;3.25;;;;;;;;;;2090068;28;20553;-48
2022/05/07 02:20:40;;;;;;;5.47;2.90;;;;;;;;;;2089875;28;20135;-49
2022/05/07 02:21:41;;;;;;;6.78;3.25;;;;;;;;;;2090036;28;20103;-48
2022/05/07 02:22:44;;;;;;;6.47;2.78;;;;;;;;;;2089981;28;20224;-49
2022/05/07 02:23:46;;;;;;;5.82;2.97;;;;;;;;;;2090049;28;20137;-58
2022/05/07 02:24:48;;;;;;;4.20;2.95;;;;;;;;;;2090065;28;20128;-58
2022/05/07 02:25:49;;;;;;;4.93;2.88;;;;;;;;;;2089955;28;20589;-58
2022/05/07 02:26:50;;;;;;;6.43;2.92;;;;;;;;;;2089992;28;20128;-58
2022/05/07 02:27:52;;;;;;;6.88;2.70;;;;;;;;;;2089853;28;20552;-58
2022/05/07 02:28:53;;;;;;;6.00;3.10;;;;;;;;;;2089961;28;20053;-58
2022/05/07 02:29:55;;;;;;;8.27;3.13;;;;;;;;;;2091305;28;20127;-58
2022/05/07 02:30:56;;;;;;;5.45;3.10;;;;;;;;;;2106490;28;20465;-58
2022/05/07 02:32:06;;;;;;;5.07;2.90;;;;;;;;;;2106505;28;20063;-58
2022/05/07 02:33:07;;;;;;;9.13;3.42;;;;;;;;;;2106669;28;20055;-58
2022/05/07 02:34:08;;;;;;;7.50;3.35;;;;;;;;;;2106408;28;20044;-58
2022/05/07 02:35:09;;;;;;;6.05;3.45;;;;;;;;;;2106446;28;20097;-58
2022/05/07 02:36:10;;;;;;;6.35;4.05;;;;;;;;;;2106505;28;20127;-58
2022/05/07 02:37:12;;;;;;;5.60;2.93;;;;;;;;;;2106378;28;20469;-58
2022/05/07 02:38:12;;;;;;;8.93;3.40;;;;;;;;;;2106562;28;20044;-58
2022/05/07 02:39:14;;;;;;;7.40;3.57;;;;;;;;;;2106472;28;20618;-58
2022/05/07 02:40:15;;;;;;;6.45;3.65;;;;;;;;;;2106521;28;20047;-58
2022/05/07 02:42:40;;;;;;;9.32;3.90;;;;;;;;;;2106482;28;20131;-58
2022/05/07 02:43:40;;;;;;;5.07;3.15;;;;;;;;;;2106419;28;20056;-58
2022/05/07 02:44:42;;;;;;;6.33;3.60;;;;;;;;;;2106445;28;20184;-58
2022/05/07 02:45:43;;;;;;;8.10;3.53;;;;;;;;;;2106379;28;20140;-58
2022/05/07 02:46:44;;;;;;;7.30;3.80;;;;;;;;;;2106531;28;20044;-58
2022/05/07 02:47:45;;;;;;;7.45;3.42;;;;;;;;;;2106347;28;20044;-58
2022/05/07 02:48:46;;;;;;;6.85;3.20;;;;;;;;;;2106328;28;20058;-58
2022/05/07 02:49:47;;;;;;;6.90;3.75;;;;;;;;;;2105289;28;20068;-59
2022/05/07 02:50:48;;;;;;;5.57;3.00;;;;;;;;;;2106136;28;20169;-58
2022/05/07 02:51:49;;;;;;;8.67;3.93;;;;;;;;;;2106405;28;20083;-58
2022/05/07 02:52:50;;;;;;;7.95;3.42;;;;;;;;;;2106321;28;20515;-58
2022/05/07 02:53:51;;;;;;;7.47;3.67;;;;;;;;;;2106378;28;20135;-58
2022/05/07 02:54:52;;;;;;;9.45;3.58;;;;;;;;;;2106415;28;20072;-58
2022/05/07 02:55:54;;;;;;;5.87;3.37;;;;;;;;;;2106359;28;20055;-58
2022/05/07 02:56:55;;;;;;;9.32;3.63;;;;;;;;;;2106326;28;20372;-58
2022/05/07 02:57:57;;;;;;;5.53;3.10;;;;;;;;;;2106319;28;20052;-58
2022/05/07 02:58:57;;;;;;;5.65;3.38;;;;;;;;;;2106243;28;20537;-59
2022/05/07 02:59:59;;;;;;;6.07;3.10;;;;;;;;;;2106383;28;20055;-58
2022/05/07 03:01:01;;;;;;;6.78;3.45;;;;;;;;;;2106272;28;20059;-58
2022/05/07 03:02:02;;;;;;;5.17;3.20;;;;;;;;;;2106500;28;20099;-58
2022/05/07 03:03:03;;;;;;;6.20;2.95;;;;;;;;;;2106275;28;20390;-58
2022/05/07 03:04:04;;;;;;;8.38;3.75;;;;;;;;;;2106238;28;20085;-58
2022/05/07 03:05:06;;;;;;;6.03;3.33;;;;;;;;;;2106344;28;20096;-58
2022/05/07 03:06:07;;;;;;;7.88;3.83;;;;;;;;;;2106509;28;20124;-59
2022/05/07 03:07:08;;;;;;;6.67;3.87;;;;;;;;;;2106530;28;20036;-49
2022/05/07 03:08:09;;;;;;;7.97;3.58;;;;;;;;;;2106308;28;20401;-47
2022/05/07 03:09:10;;;;;;;5.60;3.27;;;;;;;;;;2106509;28;20051;-58
2022/05/07 03:10:11;;;;;;;5.20;2.90;;;;;;;;;;2106376;28;20705;-58
2022/05/07 03:11:13;;;;;;;6.57;3.60;;;;;;;;;;2106409;28;20048;-58
2022/05/07 03:12:14;;;;;;;10.07;4.10;;;;;;;;;;2100837;28;20131;-58
2022/05/07 03:13:16;;;;;;;6.57;3.53;;;;;;;;;;2097979;28;20402;-58
2022/05/07 03:14:16;;;;;;;7.13;3.72;;;;;;;;;;2097837;28;20172;-58
2022/05/07 03:15:18;;;;;;;5.20;3.33;;;;;;;;;;2097871;28;20109;-58
2022/05/07 03:16:19;;;;;;;8.90;3.80;;;;;;;;;;2097858;28;20397;-58
2022/05/07 03:17:20;;;;;;;9.70;3.53;;;;;;;;;;2097819;28;20044;-58
2022/05/07 03:18:21;;;;;;;7.68;3.95;;;;;;;;;;2097560;28;20048;-58
2022/05/07 03:19:22;;;;;;;7.45;3.40;;;;;;;;;;2089416;28;20142;-58
2022/05/07 03:20:23;;;;;;;8.50;3.53;;;;;;;;;;2089561;28;20495;-58
2022/05/07 03:21:24;;;;;;;6.33;3.23;;;;;;;;;;2089576;28;20045;-58
2022/05/07 03:22:25;;;;;;;7.07;3.25;;;;;;;;;;2089665;28;20078;-58
2022/05/07 03:23:26;;;;;;;6.28;3.78;;;;;;;;;;2089643;28;20098;-58
2022/05/07 03:24:27;;;;;;;6.03;3.92;;;;;;;;;;2089497;28;20052;-58
2022/05/07 03:25:28;;;;;;;7.35;4.00;;;;;;;;;;2089955;28;20053;-47
2022/05/07 03:26:30;;;;;;;7.65;3.60;;;;;;;;;;2096820;28;20136;-47
2022/05/07 03:27:32;;;;;;;6.78;3.60;;;;;;;;;;2106200;28;20048;-48
2022/05/07 03:28:33;;;;;;;8.65;3.70;;;;;;;;;;2106012;28;20136;-47
2022/05/07 03:29:34;;;;;;;11.27;3.70;;;;;;;;;;2106220;28;20054;-47
2022/05/07 03:30:35;;;;;;;7.22;3.67;;;;;;;;;;2106120;28;20068;-47
2022/05/07 03:31:39;;;;;;;6.63;3.42;;;;;;;;;;2106382;28;20446;-47
2022/05/07 03:32:40;;;;;;;7.07;3.58;;;;;;;;;;2106157;28;20091;-48
2022/05/07 03:33:41;;;;;;;7.70;3.63;;;;;;;;;;2106165;28;20048;-48
2022/05/07 03:34:42;;;;;;;7.35;3.92;;;;;;;;;;2106123;28;20054;-47
2022/05/07 03:35:43;;;;;;;7.72;3.55;;;;;;;;;;2106083;28;20493;-47
2022/05/07 03:36:45;;;;;;;7.13;3.55;;;;;;;;;;2106071;28;20051;-47
2022/05/07 03:37:45;;;;;;;8.07;3.80;;;;;;;;;;2106151;28;20050;-47
2022/05/07 03:38:47;;;;;;;7.87;3.67;;;;;;;;;;2106167;28;20044;-47
2022/05/07 03:39:48;;;;;;;6.15;3.15;;;;;;;;;;2105995;28;20126;-47
2022/05/07 03:40:49;;;;;;;8.40;3.50;;;;;;;;;;2106111;28;20536;-47
2022/05/07 03:41:51;;;;;;;8.98;3.50;;;;;;;;;;2106058;28;20127;-49
2022/05/07 03:42:53;;;;;;;7.72;3.65;;;;;;;;;;2106186;28;20131;-47
2022/05/07 03:43:55;;;;;;;8.10;3.83;;;;;;;;;;2105907;28;20054;-47
2022/05/07 03:44:56;;;;;;;6.50;3.70;;;;;;;;;;2106072;28;20131;-47
2022/05/07 03:45:58;;;;;;;7.70;3.83;;;;;;;;;;2105972;28;20059;-47
2022/05/07 03:46:59;;;;;;;7.88;3.20;;;;;;;;;;2106119;28;20122;-47
2022/05/07 03:48:00;;;;;;;7.88;4.07;;;;;;;;;;2106095;28;20180;-48
2022/05/07 03:49:01;;;;;;;7.90;4.07;;;;;;;;;;2106019;28;20139;-47
2022/05/07 03:50:03;;;;;;;8.77;3.63;;;;;;;;;;2105957;28;20465;-47
2022/05/07 03:51:04;;;;;;;7.40;3.50;;;;;;;;;;2105987;28;20044;-47
2022/05/07 03:53:31;;;;;;;8.80;3.58;;;;;;;;;;2102468;28;20044;-48
2022/05/07 03:54:32;;;;;;;7.30;3.33;;;;;;;;;;2097603;28;20098;-47
2022/05/07 03:55:33;;;;;;;9.18;4.05;;;;;;;;;;2097583;28;20052;-48
2022/05/07 03:56:34;;;;;;;5.90;3.35;;;;;;;;;;2097969;28;20049;-49
2022/05/07 03:57:36;;;;;;;8.38;4.00;;;;;;;;;;2097595;28;20047;-49
2022/05/07 03:58:37;;;;;;;11.02;3.63;;;;;;;;;;2097637;28;20132;-48
2022/05/07 03:59:44;;;;;;;7.18;3.70;;;;;;;;;;2097581;28;20052;-47
2022/05/07 04:00:45;;;;;;;6.37;3.40;;;;;;;;;;2097414;28;20075;-47
2022/05/07 04:01:46;;;;;;;7.78;3.22;;;;;;;;;;2097322;28;20432;-46
2022/05/07 04:02:47;;;;;;;8.13;3.42;;;;;;;;;;2097658;28;20050;-48
2022/05/07 04:03:49;;;;;;;5.13;3.03;;;;;;;;;;2097546;28;20056;-49
2022/05/07 04:04:51;;;;;;;6.90;3.85;;;;;;;;;;2097586;28;20350;-47
2022/05/07 04:05:52;;;;;;;5.50;3.38;;;;;;;;;;2097621;28;20131;-48
2022/05/07 04:06:53;;;;;;;6.07;3.20;;;;;;;;;;2097490;28;20048;-47
2022/05/07 04:07:54;;;;;;;6.50;3.97;;;;;;;;;;2097555;28;20616;-47
2022/05/07 04:08:55;;;;;;;5.65;3.67;;;;;;;;;;2097424;28;20314;-49
2022/05/07 04:09:56;;;;;;;8.20;2.90;;;;;;;;;;2097636;28;20048;-47
2022/05/07 04:10:58;;;;;;;6.68;3.00;;;;;;;;;;2097453;28;20522;-49
2022/05/07 04:11:59;;;;;;;5.37;2.83;;;;;;;;;;2097647;28;20044;-48
2022/05/07 04:13:00;;;;;;;6.10;3.10;;;;;;;;;;2097484;28;20127;-47
2022/05/07 04:14:02;;;;;;;6.95;3.30;;;;;;;;;;2097501;28;20049;-46
2022/05/07 04:15:03;;;;;;;8.98;3.35;;;;;;;;;;2097563;28;20572;-47
2022/05/07 04:16:04;;;;;;;5.90;2.92;;;;;;;;;;2097553;28;20185;-48
2022/05/07 04:17:05;;;;;;;6.90;3.30;;;;;;;;;;2097545;28;20048;-48
2022/05/07 04:18:07;;;;;;;9.63;3.07;;;;;;;;;;2097677;28;20378;-47
2022/05/07 04:19:09;;;;;;;4.22;2.60;;;;;;;;;;2090605;28;20445;-47
2022/05/07 04:20:11;;;;;;;5.95;3.28;;;;;;;;;;2089141;28;20119;-50
2022/05/07 04:21:13;;;;;;;5.15;2.92;;;;;;;;;;2089550;28;20073;-47
2022/05/07 04:22:14;;;;;;;7.80;2.90;;;;;;;;;;2089340;28;20044;-58
2022/05/07 04:23:15;;;;;;;6.20;3.17;;;;;;;;;;2104509;28;20134;-58
2022/05/07 04:24:16;;;;;;;7.50;3.47;;;;;;;;;;2105646;28;20131;-58
2022/05/07 04:25:17;;;;;;;7.30;3.10;;;;;;;;;;2105863;28;20047;-58
2022/05/07 04:26:18;;;;;;;5.63;2.60;;;;;;;;;;2105712;28;20492;-59
2022/05/07 04:27:19;;;;;;;6.93;2.90;;;;;;;;;;2106101;28;20134;-58
2022/05/07 04:28:21;;;;;;;7.00;3.38;;;;;;;;;;2105687;28;20438;-58
2022/05/07 04:29:22;;;;;;;7.63;3.28;;;;;;;;;;2105625;28;20176;-59
2022/05/07 04:30:23;;;;;;;4.90;2.58;;;;;;;;;;2105955;28;20653;-59
2022/05/07 04:31:25;;;;;;;4.82;2.88;;;;;;;;;;2105715;28;20044;-59
2022/05/07 04:32:29;;;;;;;6.07;2.90;;;;;;;;;;2105960;28;20052;-59
2022/05/07 04:33:31;;;;;;;7.33;2.87;;;;;;;;;;2105636;28;20075;-59
2022/05/07 04:34:32;;;;;;;5.03;2.80;;;;;;;;;;2105751;28;20497;-59
2022/05/07 04:35:33;;;;;;;8.43;3.20;;;;;;;;;;2105754;28;20047;-59
2022/05/07 04:36:34;;;;;;;6.63;2.92;;;;;;;;;;2105882;28;20280;-59
2022/05/07 04:37:35;;;;;;;6.73;2.70;;;;;;;;;;2105665;28;20056;-58
2022/05/07 04:38:36;;;;;;;7.05;3.53;;;;;;;;;;2105771;28;20074;-58
2022/05/07 04:39:37;;;;;;;4.18;2.72;;;;;;;;;;2105888;28;20047;-59
2022/05/07 04:40:38;;;;;;;6.43;3.15;;;;;;;;;;2105868;28;20058;-59
2022/05/07 04:41:39;;;;;;;5.45;2.97;;;;;;;;;;2105904;28;20075;-59
2022/05/07 04:42:41;;;;;;;7.22;2.53;;;;;;;;;;2105665;28;20412;-59
2022/05/07 04:43:42;;;;;;;;;;;;;;;;;;2106033;28;20485;-58
2022/05/07 04:44:44;;;;;;;6.15;3.30;;;;;;;;;;2105667;28;19920;-58
2022/05/07 04:45:45;;;;;;;6.65;2.78;;;;;;;;;;2105734;28;20051;-59
2022/05/07 04:46:46;;;;;;;8.25;3.25;;;;;;;;;;2105695;28;20044;-59
2022/05/07 04:47:47;;;;;;;6.43;2.60;;;;;;;;;;2105761;28;20052;-59
2022/05/07 04:48:48;;;;;;;6.35;3.20;;;;;;;;;;2105516;28;20285;-59
2022/05/07 04:49:49;;;;;;;5.67;3.53;;;;;;;;;;2105752;28;20044;-59
2022/05/07 04:50:50;;;;;;;5.57;3.25;;;;;;;;;;2105824;28;20502;-59
2022/05/07 04:51:52;;;;;;;6.53;3.33;;;;;;;;;;2105535;28;20055;-59
2022/05/07 04:52:53;;;;;;;5.53;2.60;;;;;;;;;;2105937;28;20127;-59
2022/05/07 04:53:54;;;;;;;7.63;3.22;;;;;;;;;;2105482;28;20523;-58
2022/05/07 04:54:55;;;;;;;6.00;3.03;;;;;;;;;;2105635;28;20059;-59
2022/05/07 04:55:56;;;;;;;7.05;2.95;;;;;;;;;;2105594;28;20134;-59
2022/05/07 04:56:57;;;;;;;5.63;3.33;;;;;;;;;;2105631;28;20044;-59
2022/05/07 04:57:58;;;;;;;7.63;3.50;;;;;;;;;;2105633;28;20055;-59
2022/05/07 04:58:59;;;;;;;5.40;2.50;;;;;;;;;;2105666;28;20286;-59
2022/05/07 05:00:01;;;;;;;6.30;3.00;;;;;;;;;;2105494;28;20495;-59
2022/05/07 05:01:03;;;;;;;6.47;3.15;;;;;;;;;;2105802;28;20039;-59
2022/05/07 05:02:04;;;;;;;4.38;2.38;;;;;;;;;;2105664;28;20129;-58
2022/05/07 05:03:07;;;;;;;8.98;3.35;;;;;;;;;;2105629;28;20074;-59
2022/05/07 05:04:08;;;;;;;5.13;2.42;;;;;;;;;;2104974;28;20443;-59
2022/05/07 05:05:09;;;;;;;5.97;3.27;;;;;;;;;;2097171;28;20043;-59
2022/05/07 05:06:10;;;;;;;8.52;3.40;;;;;;;;;;2097330;28;20123;-59
2022/05/07 05:07:12;;;;;;;5.53;2.80;;;;;;;;;;2097261;28;20103;-59
2022/05/07 05:08:13;;;;;;;7.75;3.17;;;;;;;;;;2097261;28;20045;-59
2022/05/07 05:09:14;;;;;;;8.45;3.47;;;;;;;;;;2097584;28;20048;-59
2022/05/07 05:10:15;;;;;;;5.80;2.75;;;;;;;;;;2097203;28;20131;-59
2022/05/07 05:11:16;;;;;;;6.22;2.80;;;;;;;;;;2097307;28;20128;-59
2022/05/07 05:12:18;;;;;;;8.47;3.00;;;;;;;;;;2097391;28;20036;-50
2022/05/07 05:13:19;;;;;;;5.22;2.88;;;;;;;;;;2097740;28;20167;-47
2022/05/07 05:15:41;;;;;;;6.72;2.60;;;;;;;;;;2098806;28;20568;-59
2022/05/07 05:16:42;;;;;;;;;;;;;;;;;;2099027;28;20493;-59
2022/05/07 05:17:43;;;;;;;5.13;2.80;;;;;;;;;;2098620;28;19928;-59
2022/05/07 05:18:44;;;;;;;5.25;2.90;;;;;;;;;;2096274;28;20036;-59
2022/05/07 05:19:45;;;;;;;5.33;2.77;;;;;;;;;;2098700;28;20177;-59
2022/05/07 05:20:46;;;;;;;6.32;3.10;;;;;;;;;;2098573;28;20285;-59
2022/05/07 05:21:47;;;;;;;4.82;2.90;;;;;;;;;;2098562;28;20549;-59
2022/05/07 05:22:48;;;;;;;5.40;3.00;;;;;;;;;;2098695;28;20056;-59
2022/05/07 05:23:49;;;;;;;4.68;2.60;;;;;;;;;;2098599;28;20049;-59
2022/05/07 05:24:51;;;;;;;4.72;2.80;;;;;;;;;;2098391;28;20408;-59
2022/05/07 05:25:52;;;;;;;5.25;3.00;;;;;;;;;;2098522;28;20458;-59
2022/05/07 05:26:53;;;;;;;5.27;2.80;;;;;;;;;;2098806;28;20140;-59
2022/05/07 05:27:54;;;;;;;6.53;2.95;;;;;;;;;;2098774;28;20123;-48
2022/05/07 05:28:55;;;;;;;4.72;2.65;;;;;;;;;;2098556;28;20058;-48
2022/05/07 05:29:56;;;;;;;5.88;3.22;;;;;;;;;;2098590;28;20266;-46
2022/05/07 05:30:58;;;;;;;5.28;2.90;;;;;;;;;;2098863;28;20253;-59
2022/05/07 05:31:59;;;;;;;7.18;3.20;;;;;;;;;;2098720;28;20125;-59
2022/05/07 05:33:00;;;;;;;5.70;3.08;;;;;;;;;;2098766;28;20048;-59
2022/05/07 05:34:02;;;;;;;7.23;2.83;;;;;;;;;;2098528;28;20510;-59
2022/05/07 05:35:03;;;;;;;6.97;3.42;;;;;;;;;;2098845;28;20119;-48
2022/05/07 05:36:04;;;;;;;7.95;3.60;;;;;;;;;;2098611;28;20051;-47
2022/05/07 05:37:06;;;;;;;6.50;3.20;;;;;;;;;;2098517;28;20067;-47
2022/05/07 05:38:07;;;;;;;6.50;3.05;;;;;;;;;;2098629;28;20045;-47
2022/05/07 05:39:09;;;;;;;5.88;3.05;;;;;;;;;;2098452;28;20044;-50
2022/05/07 05:40:10;;;;;;;6.82;3.42;;;;;;;;;;2098764;28;20135;-47
2022/05/07 05:41:11;;;;;;;7.50;3.17;;;;;;;;;;2098408;28;20052;-48
2022/05/07 05:42:13;;;;;;;7.07;3.10;;;;;;;;;;2098452;28;20769;-48
2022/05/07 05:43:14;;;;;;;6.13;3.20;;;;;;;;;;2098419;28;20123;-47
2022/05/07 05:44:15;;;;;;;5.68;2.53;;;;;;;;;;2098294;28;20408;-47
2022/05/07 05:45:17;;;;;;;6.22;3.03;;;;;;;;;;2098420;28;20052;-47
2022/05/07 05:46:19;;;;;;;5.43;2.67;;;;;;;;;;2098547;28;20060;-50
2022/05/07 05:47:20;;;;;;;5.88;2.38;;;;;;;;;;2098506;28;20048;-49
2022/05/07 05:48:22;;;;;;;6.22;2.97;;;;;;;;;;2098507;28;20120;-48
2022/05/07 05:49:23;;;;;;;7.05;3.25;;;;;;;;;;2098403;28;20052;-46
2022/05/07 05:50:24;;;;;;;7.45;2.65;;;;;;;;;;2098402;28;20176;-49
2022/05/07 05:51:25;;;;;;;6.10;3.10;;;;;;;;;;2098545;28;20198;-48
2022/05/07 05:52:27;;;;;;;5.85;3.03;;;;;;;;;;2098380;28;20129;-49
2022/05/07 05:53:30;;;;;;;5.68;2.92;;;;;;;;;;2098341;28;20482;-48
2022/05/07 05:54:32;;;;;;;5.22;2.70;;;;;;;;;;2098567;28;20052;-48
2022/05/07 05:55:33;;;;;;;5.80;3.25;;;;;;;;;;2098556;28;20573;-47
2022/05/07 05:56:34;;;;;;;5.22;2.78;;;;;;;;;;2098297;28;20162;-47
2022/05/07 05:57:35;;;;;;;6.80;3.20;;;;;;;;;;2098501;28;20087;-50
2022/05/07 05:58:36;;;;;;;7.47;3.38;;;;;;;;;;2098225;28;20401;-47
2022/05/07 05:59:38;;;;;;;5.93;2.90;;;;;;;;;;2098734;28;20049;-60
2022/05/07 06:00:39;;;;;;;7.20;3.10;;;;;;;;;;2098206;28;20334;-59
2022/05/07 06:01:40;;;;;;;5.33;2.97;;;;;;;;;;2098234;28;20110;-60
2022/05/07 06:02:44;;;;;;;;;;;;;;;;;;2098888;28;20296;-60
2022/05/07 06:03:45;;;;;;;6.15;3.20;;;;;;;;;;2098174;28;19943;-60
2022/05/07 06:04:46;;;;;;;5.93;2.92;;;;;;;;;;2098502;28;20048;-47
2022/05/07 06:05:47;;;;;;;6.07;3.20;;;;;;;;;;2098203;28;20105;-47
2022/05/07 06:06:49;;;;;;;5.28;2.97;;;;;;;;;;2098321;28;20135;-48
2022/05/07 06:07:50;;;;;;;7.20;3.20;;;;;;;;;;2098191;28;20072;-47
2022/05/07 06:08:51;;;;;;;5.30;2.80;;;;;;;;;;2098503;28;20056;-60
2022/05/07 06:09:52;;;;;;;5.00;2.40;;;;;;;;;;2098225;28;20040;-60
2022/05/07 06:10:54;;;;;;;6.30;3.20;;;;;;;;;;2098341;28;20091;-60
2022/05/07 06:11:57;;;;;;;7.15;2.97;;;;;;;;;;2098369;28;20075;-60
2022/05/07 06:12:58;;;;;;;5.57;2.63;;;;;;;;;;2098312;28;20135;-60
2022/05/07 06:13:59;;;;;;;6.45;3.38;;;;;;;;;;2098143;28;20466;-59
2022/05/07 06:15:00;;;;;;;6.37;3.00;;;;;;;;;;2099530;28;20094;-59
2022/05/07 06:16:01;;;;;;;5.55;2.72;;;;;;;;;;2106527;28;20495;-60
2022/05/07 06:17:03;;;;;;;5.75;3.40;;;;;;;;;;2106905;28;20127;-47
2022/05/07 06:18:04;;;;;;;10.73;3.53;;;;;;;;;;2106708;28;20055;-48
2022/05/07 06:19:07;;;;;;;5.25;2.88;;;;;;;;;;2100061;28;20041;-47